createdAt,value
2022-10-12T00:01:51.316Z,95.97
2022-10-12T00:04:18.196Z,96.03
2022-10-12T00:06:44.888Z,96.57
2022-10-12T00:09:11.755Z,96.73
2022-10-12T00:11:41.280Z,97.44
2022-10-12T00:14:08.504Z,96.54
2022-10-12T00:16:35.245Z,96.07
2022-10-12T00:19:02.157Z,95.77
2022-10-12T00:21:30.588Z,96.10
2022-10-12T00:23:59.810Z,96.62
2022-10-12T00:26:28.020Z,97.28
2022-10-12T00:28:57.562Z,97.26
2022-10-12T00:31:24.930Z,95.64
2022-10-12T00:33:52.005Z,96.30
2022-10-12T00:36:27.174Z,96.50
2022-10-12T00:38:55.690Z,95.90
2022-10-12T00:41:25.553Z,96.20
2022-10-12T00:43:57.963Z,95.74
2022-10-12T00:46:37.682Z,94.88
2022-10-12T00:49:24.827Z,95.37
2022-10-12T00:51:54.551Z,95.43
2022-10-12T00:54:25.341Z,95.23
2022-10-12T00:56:54.043Z,95.31
2022-10-12T00:59:26.192Z,94.61
2022-10-12T01:01:53.409Z,95.34
2022-10-12T01:04:21.911Z,95.56
2022-10-12T01:06:48.695Z,95.43
2022-10-12T01:09:15.594Z,95.81
2022-10-12T01:11:42.542Z,96.66
2022-10-12T01:14:09.713Z,95.58
2022-10-12T01:16:44.592Z,96.59
2022-10-12T01:19:14.644Z,96.14
2022-10-12T01:21:46.598Z,96.51
2022-10-12T01:24:35.968Z,95.95
2022-10-12T01:27:27.282Z,96.62
2022-10-12T01:30:06.529Z,96.28
2022-10-12T01:32:53.517Z,95.72
2022-10-12T01:35:38.019Z,97.48
2022-10-12T01:38:17.629Z,99.02
2022-10-12T01:41:01.839Z,97.85
2022-10-12T01:43:37.963Z,98.00
2022-10-12T01:46:45.671Z,97.93
2022-10-12T01:49:14.130Z,97.60
2022-10-12T01:52:10.105Z,96.41
2022-10-12T01:55:01.009Z,96.04
2022-10-12T01:57:54.910Z,96.15
2022-10-12T02:00:21.822Z,95.79
2022-10-12T02:03:15.394Z,95.34
2022-10-12T02:06:28.592Z,95.29
2022-10-12T02:09:14.367Z,95.87
2022-10-12T02:11:43.238Z,95.83
2022-10-12T02:14:19.805Z,95.43
2022-10-12T02:16:51.435Z,95.16
2022-10-12T02:19:23.812Z,95.46
2022-10-12T02:21:51.832Z,95.68
2022-10-12T02:24:19.565Z,95.78
2022-10-12T02:26:48.400Z,95.89
2022-10-12T02:29:20.232Z,96.48
2022-10-12T02:32:29.689Z,97.67
2022-10-12T02:35:16.663Z,96.82
2022-10-12T02:38:18.472Z,97.19
2022-10-12T02:40:53.045Z,97.36
2022-10-12T02:43:28.823Z,96.72
2022-10-12T02:45:57.804Z,96.70
2022-10-12T02:48:25.107Z,96.73
2022-10-12T02:50:56.839Z,95.89
2022-10-12T02:53:25.725Z,95.24
2022-10-12T02:55:56.353Z,94.78
2022-10-12T02:58:23.232Z,95.14
2022-10-12T03:00:50.016Z,96.64
2022-10-12T03:03:16.801Z,95.81
2022-10-12T03:05:43.646Z,96.26
2022-10-12T03:08:10.599Z,96.44
2022-10-12T03:10:37.815Z,96.74
2022-10-12T03:13:04.789Z,96.17
2022-10-12T03:15:32.068Z,95.77
2022-10-12T03:17:59.035Z,95.55
2022-10-12T03:20:25.975Z,95.20
2022-10-12T03:22:52.898Z,95.42
2022-10-12T03:25:20.309Z,95.37
2022-10-12T03:27:47.196Z,96.12
2022-10-12T03:30:14.975Z,96.00
2022-10-12T03:32:41.639Z,96.28
2022-10-12T03:35:09.971Z,96.45
2022-10-12T03:37:37.952Z,96.41
2022-10-12T03:40:06.101Z,96.46
2022-10-12T03:42:33.166Z,96.97
2022-10-12T03:45:00.013Z,96.19
2022-10-12T03:47:26.899Z,96.58
2022-10-12T03:49:54.569Z,97.68
2022-10-12T03:52:21.351Z,98.13
2022-10-12T03:54:48.121Z,98.35
2022-10-12T03:57:14.902Z,98.19
2022-10-12T03:59:41.630Z,97.44
2022-10-12T04:02:10.231Z,97.45
2022-10-12T04:04:40.096Z,97.36
2022-10-12T04:07:07.224Z,96.62
2022-10-12T04:09:34.034Z,97.18
2022-10-12T04:12:00.934Z,97.81
2022-10-12T04:14:28.072Z,97.26
2022-10-12T04:16:55.198Z,97.21
2022-10-12T04:19:22.561Z,96.10
2022-10-12T04:21:49.469Z,96.88
2022-10-12T04:24:16.214Z,97.86
2022-10-12T04:26:43.171Z,97.92
2022-10-12T04:29:13.184Z,98.98
2022-10-12T04:31:41.019Z,98.58
2022-10-12T04:34:09.166Z,98.94
2022-10-12T04:36:36.053Z,99.03
2022-10-12T04:39:03.101Z,98.74
2022-10-12T04:41:30.266Z,98.85
2022-10-12T04:43:57.777Z,99.26
2022-10-12T04:46:24.664Z,99.67
2022-10-12T04:48:51.715Z,99.18
2022-10-12T04:51:19.304Z,99.96
2022-10-12T04:53:46.307Z,99.97
2022-10-12T04:56:13.034Z,100.00
2022-10-12T04:58:39.934Z,100.00
2022-10-12T05:01:06.946Z,99.76
2022-10-12T05:03:36.086Z,99.02
2022-10-12T05:06:07.029Z,99.99
2022-10-12T05:08:34.020Z,100.00
2022-10-12T05:11:00.869Z,99.96
2022-10-12T05:13:28.892Z,99.64
2022-10-12T05:15:55.954Z,99.78
2022-10-12T05:18:22.963Z,100.00
2022-10-12T05:20:52.227Z,100.00
2022-10-12T05:23:22.970Z,100.00
2022-10-12T05:25:49.905Z,100.00
2022-10-12T05:28:17.050Z,100.00
2022-10-12T05:30:43.793Z,100.00
2022-10-12T05:33:10.982Z,100.00
2022-10-12T05:35:38.253Z,100.00
2022-10-12T05:38:05.077Z,100.00
2022-10-12T05:40:31.768Z,100.00
2022-10-12T05:42:58.617Z,100.00
2022-10-12T05:45:25.363Z,100.00
2022-10-12T05:47:52.119Z,100.00
2022-10-12T05:50:18.944Z,100.00
2022-10-12T05:52:45.794Z,100.00
2022-10-12T05:55:13.177Z,100.00
2022-10-12T05:57:40.500Z,100.00
2022-10-12T06:00:08.939Z,100.00
2022-10-12T06:02:36.273Z,100.00
2022-10-12T06:05:03.955Z,100.00
2022-10-12T06:07:30.981Z,100.00
2022-10-12T06:09:58.376Z,100.00
2022-10-12T06:12:25.126Z,100.00
2022-10-12T06:14:52.413Z,100.00
2022-10-12T06:17:19.531Z,100.00
2022-10-12T06:19:46.307Z,100.00
2022-10-12T06:22:13.049Z,100.00
2022-10-12T06:24:40.026Z,100.00
2022-10-12T06:27:06.952Z,100.00
2022-10-12T06:29:34.116Z,100.00
2022-10-12T06:32:01.123Z,100.00
2022-10-12T06:34:27.930Z,100.00
2022-10-12T06:36:58.235Z,100.00
2022-10-12T06:39:28.325Z,100.00
2022-10-12T06:41:54.974Z,100.00
2022-10-12T06:44:25.291Z,100.00
2022-10-12T06:46:53.121Z,100.00
2022-10-12T06:49:21.302Z,100.00
2022-10-12T06:51:48.084Z,100.00
2022-10-12T06:54:14.849Z,100.00
2022-10-12T06:56:41.738Z,100.00
2022-10-12T06:59:08.715Z,100.00
2022-10-12T07:01:35.443Z,100.00
2022-10-12T07:04:02.342Z,100.00
2022-10-12T07:06:29.110Z,100.00
2022-10-12T07:08:55.972Z,100.00
2022-10-12T07:11:23.063Z,100.00
2022-10-12T07:13:49.945Z,100.00
2022-10-12T07:16:16.700Z,100.00
2022-10-12T07:18:44.554Z,100.00
2022-10-12T07:21:12.330Z,100.00
2022-10-12T07:23:43.650Z,100.00
2022-10-12T07:26:11.851Z,100.00
2022-10-12T07:28:38.696Z,100.00
2022-10-12T07:31:07.892Z,100.00
2022-10-12T07:33:35.941Z,100.00
2022-10-12T07:36:13.889Z,100.00
2022-10-12T07:38:45.292Z,100.00
2022-10-12T07:41:12.746Z,100.00
2022-10-12T07:43:39.630Z,100.00
2022-10-12T07:46:06.511Z,100.00
2022-10-12T07:48:34.824Z,100.00
2022-10-12T07:51:06.406Z,100.00
2022-10-12T07:53:38.385Z,100.00
2022-10-12T07:56:07.675Z,100.00
2022-10-12T07:58:34.398Z,100.00
2022-10-12T08:01:08.667Z,100.00
2022-10-12T08:03:35.557Z,100.00
2022-10-12T08:06:13.653Z,100.00
2022-10-12T08:08:40.835Z,100.00
2022-10-12T08:11:08.235Z,100.00
2022-10-12T08:13:35.538Z,100.00
2022-10-12T08:16:03.876Z,100.00
2022-10-12T08:18:31.113Z,100.00
2022-10-12T08:20:58.366Z,100.00
2022-10-12T08:23:25.934Z,100.00
2022-10-12T08:25:54.343Z,100.00
2022-10-12T08:28:21.786Z,100.00
2022-10-12T08:30:49.120Z,100.00
2022-10-12T08:33:16.450Z,100.00
2022-10-12T08:35:44.324Z,100.00
2022-10-12T08:38:12.540Z,100.00
2022-10-12T08:41:01.413Z,100.00
2022-10-12T08:43:43.965Z,100.00
2022-10-12T08:46:11.218Z,100.00
2022-10-12T08:48:59.596Z,99.85
2022-10-12T08:51:28.706Z,98.97
2022-10-12T08:54:11.374Z,98.11
2022-10-12T08:56:40.437Z,98.85
2022-10-12T08:59:15.291Z,98.92
2022-10-12T09:02:25.937Z,98.59
2022-10-12T09:05:06.971Z,98.21
2022-10-12T09:07:50.135Z,97.84
2022-10-12T09:10:54.179Z,96.16
2022-10-12T09:13:51.151Z,96.40
2022-10-12T09:16:30.184Z,95.08
2022-10-12T09:18:59.244Z,95.19
2022-10-12T09:21:28.174Z,93.43
2022-10-12T09:23:58.542Z,93.48
2022-10-12T09:26:39.514Z,93.88
2022-10-12T09:29:23.394Z,93.65
2022-10-12T09:32:16.900Z,93.35
2022-10-12T09:34:44.479Z,93.29
2022-10-12T09:37:25.758Z,92.08
2022-10-12T09:39:52.896Z,90.54
2022-10-12T09:42:20.121Z,89.41
2022-10-12T09:44:49.819Z,90.03
2022-10-12T09:47:29.206Z,88.87
2022-10-12T09:50:04.525Z,88.79
2022-10-12T09:52:41.870Z,88.54
2022-10-12T09:55:37.978Z,87.78
2022-10-12T09:58:04.910Z,87.48
2022-10-12T10:00:35.391Z,87.22
2022-10-12T10:03:02.725Z,87.05
2022-10-12T10:05:35.259Z,85.15
2022-10-12T10:08:39.606Z,86.09
2022-10-12T10:11:06.453Z,85.56
2022-10-12T10:13:34.013Z,86.32
2022-10-12T10:16:09.411Z,85.53
2022-10-12T10:18:38.482Z,85.61
2022-10-12T10:21:08.877Z,85.12
2022-10-12T10:23:57.996Z,83.12
2022-10-12T10:26:26.352Z,82.47
2022-10-12T10:29:24.608Z,82.42
2022-10-12T10:32:29.136Z,82.36
2022-10-12T10:35:32.593Z,82.06
2022-10-12T10:37:59.780Z,81.05
2022-10-12T10:40:30.137Z,80.41
2022-10-12T10:43:06.229Z,81.02
2022-10-12T10:45:36.132Z,80.54
2022-10-12T10:48:10.719Z,80.22
2022-10-12T10:50:39.560Z,79.72
2022-10-12T10:53:14.802Z,80.13
2022-10-12T10:55:46.166Z,79.74
2022-10-12T10:58:25.386Z,80.49
2022-10-12T11:00:53.954Z,80.63
2022-10-12T11:03:25.657Z,81.09
2022-10-12T11:05:57.335Z,80.17
2022-10-12T11:08:29.539Z,79.04
2022-10-12T11:11:02.932Z,78.30
2022-10-12T11:13:45.907Z,77.13
2022-10-12T11:16:36.499Z,75.99
2022-10-12T11:19:15.589Z,76.84
2022-10-12T11:21:53.861Z,78.45
2022-10-12T11:24:35.797Z,77.19
2022-10-12T11:27:26.174Z,77.49
2022-10-12T11:30:08.317Z,76.24
2022-10-12T11:32:38.919Z,76.96
2022-10-12T11:35:07.926Z,75.50
2022-10-12T11:37:45.831Z,76.07
2022-10-12T11:40:55.487Z,76.32
2022-10-12T11:43:22.926Z,76.53
2022-10-12T11:45:54.201Z,75.73
2022-10-12T11:48:27.343Z,76.61
2022-10-12T11:51:02.867Z,76.11
2022-10-12T11:54:01.739Z,75.96
2022-10-12T11:56:43.091Z,76.66
2022-10-12T11:59:41.149Z,75.52
2022-10-12T12:02:44.550Z,75.38
2022-10-12T12:05:16.528Z,75.58
2022-10-12T12:07:52.177Z,76.28
2022-10-12T12:10:43.510Z,74.75
2022-10-12T12:13:28.908Z,72.78
2022-10-12T12:16:22.617Z,72.38
2022-10-12T12:19:18.466Z,72.02
2022-10-12T12:22:36.351Z,72.64
2022-10-12T12:25:28.989Z,72.44
2022-10-12T12:28:06.521Z,70.38
2022-10-12T12:30:37.535Z,68.48
2022-10-12T12:33:28.486Z,67.74
2022-10-12T12:36:04.008Z,69.05
2022-10-12T12:38:36.262Z,69.31
2022-10-12T12:41:17.826Z,69.17
2022-10-12T12:43:56.945Z,68.79
2022-10-12T12:46:26.921Z,69.06
2022-10-12T12:48:58.228Z,69.13
2022-10-12T12:51:38.562Z,68.70
2022-10-12T12:54:17.232Z,69.00
2022-10-12T12:57:15.423Z,68.57
2022-10-12T13:00:11.175Z,69.73
2022-10-12T13:03:16.789Z,68.61
2022-10-12T13:06:01.046Z,68.85
2022-10-12T13:09:01.301Z,68.13
2022-10-12T13:11:52.779Z,67.86
2022-10-12T13:14:38.219Z,67.50
2022-10-12T13:17:33.368Z,67.86
2022-10-12T13:20:06.888Z,66.95
2022-10-12T13:22:35.559Z,67.66
2022-10-12T13:25:06.470Z,68.62
2022-10-12T13:27:42.518Z,68.86
2022-10-12T13:30:52.842Z,68.66
2022-10-12T13:33:29.958Z,68.26
2022-10-12T13:36:04.310Z,69.69
2022-10-12T13:38:31.909Z,69.68
2022-10-12T13:41:17.119Z,69.82
2022-10-12T13:43:56.772Z,68.50
2022-10-12T13:46:46.407Z,69.45
2022-10-12T13:49:29.026Z,68.23
2022-10-12T13:52:16.648Z,67.94
2022-10-12T13:54:47.838Z,68.88
2022-10-12T13:57:50.466Z,68.62
2022-10-12T14:00:28.588Z,68.72
2022-10-12T14:03:04.225Z,69.21
2022-10-12T14:05:33.419Z,69.13
2022-10-12T14:08:04.010Z,68.73
2022-10-12T14:10:33.844Z,68.84
2022-10-12T14:13:02.508Z,69.41
2022-10-12T14:15:34.598Z,68.73
2022-10-12T14:18:01.555Z,68.92
2022-10-12T14:20:35.359Z,69.74
2022-10-12T14:23:04.793Z,68.87
2022-10-12T14:25:32.692Z,69.49
2022-10-12T14:28:01.873Z,69.89
2022-10-12T14:30:42.912Z,69.65
2022-10-12T14:33:30.557Z,70.04
2022-10-12T14:36:25.294Z,70.24
2022-10-12T14:38:53.104Z,70.45
2022-10-12T14:41:38.723Z,70.55
2022-10-12T14:44:18.341Z,70.25
2022-10-12T14:46:57.258Z,70.93
2022-10-12T14:49:26.626Z,70.97
2022-10-12T14:51:54.964Z,69.44
2022-10-12T14:54:22.483Z,69.69
2022-10-12T14:56:50.982Z,70.00
2022-10-12T14:59:18.055Z,70.18
2022-10-12T15:01:47.573Z,70.36
2022-10-12T15:04:18.637Z,71.02
2022-10-12T15:06:50.549Z,70.62
2022-10-12T15:09:18.772Z,70.69
2022-10-12T15:11:45.584Z,70.95
2022-10-12T15:14:12.788Z,71.18
2022-10-12T15:20:17.380Z,71.41
2022-10-12T15:22:45.106Z,71.13
2022-10-12T15:25:24.476Z,72.26
2022-10-12T15:27:51.651Z,73.83
2022-10-12T15:30:18.521Z,73.75
2022-10-12T15:32:46.036Z,73.48
2022-10-12T15:35:19.707Z,73.85
2022-10-12T15:37:47.124Z,73.01
2022-10-12T15:40:14.226Z,72.86
2022-10-12T15:42:43.028Z,72.91
2022-10-12T15:45:27.413Z,72.94
2022-10-12T15:47:54.983Z,73.91
2022-10-12T15:50:24.802Z,74.77
2022-10-12T15:52:51.813Z,76.02
2022-10-12T15:55:21.691Z,76.94
2022-10-12T15:57:48.991Z,78.25
2022-10-12T16:00:17.529Z,79.01
2022-10-12T16:02:44.612Z,80.08
2022-10-12T16:05:27.057Z,80.32
2022-10-12T16:07:54.955Z,79.85
2022-10-12T16:10:27.687Z,80.21
2022-10-12T16:12:55.317Z,80.87
2022-10-12T16:15:25.268Z,81.55
2022-10-12T16:17:52.402Z,82.39
2022-10-12T16:20:19.428Z,82.82
2022-10-12T16:22:47.014Z,83.43
2022-10-12T16:25:17.171Z,83.48
2022-10-12T16:27:45.301Z,84.47
2022-10-12T16:30:12.876Z,84.09
2022-10-12T16:32:39.608Z,85.02
2022-10-12T16:35:07.478Z,85.38
2022-10-12T16:37:35.074Z,86.15
2022-10-12T16:40:03.867Z,86.35
2022-10-12T16:42:30.925Z,86.76
2022-10-12T16:44:58.379Z,87.44
2022-10-12T16:47:25.745Z,87.79
2022-10-12T16:49:54.321Z,88.57
2022-10-12T16:52:25.023Z,89.08
2022-10-12T16:54:55.493Z,89.33
2022-10-12T16:57:23.650Z,89.46
2022-10-12T16:59:52.594Z,89.69
2022-10-12T17:02:19.911Z,90.08
2022-10-12T17:04:47.080Z,90.26
2022-10-12T17:07:14.602Z,89.96
2022-10-12T17:09:41.249Z,89.97
2022-10-12T17:12:08.292Z,90.51
2022-10-12T17:14:35.196Z,90.80
2022-10-12T17:17:01.901Z,90.79
2022-10-12T17:19:32.082Z,91.05
2022-10-12T17:22:01.113Z,91.35
2022-10-12T17:24:31.181Z,91.22
2022-10-12T17:26:59.107Z,91.88
2022-10-12T17:29:27.682Z,91.98
2022-10-12T17:31:55.333Z,92.11
2022-10-12T17:34:25.021Z,92.26
2022-10-12T17:36:53.776Z,92.59
2022-10-12T17:39:21.465Z,92.77
2022-10-12T17:41:48.706Z,93.10
2022-10-12T17:44:15.957Z,94.01
2022-10-12T17:46:45.710Z,94.82
2022-10-12T17:49:15.135Z,94.19
2022-10-12T17:51:42.321Z,94.37
2022-10-12T17:54:13.294Z,94.00
2022-10-12T17:56:40.229Z,94.25
2022-10-12T17:59:07.177Z,94.80
2022-10-12T18:01:37.072Z,94.73
2022-10-12T18:04:05.081Z,94.68
2022-10-12T18:06:33.322Z,94.83
2022-10-12T18:09:05.159Z,94.67
2022-10-12T18:11:32.892Z,95.39
2022-10-12T18:14:00.045Z,95.16
2022-10-12T18:16:30.221Z,96.31
2022-10-12T18:18:59.142Z,96.48
2022-10-12T18:21:28.414Z,96.24
2022-10-12T18:23:55.998Z,96.88
2022-10-12T18:26:23.262Z,96.71
2022-10-12T18:28:54.040Z,96.60
2022-10-12T18:31:26.151Z,97.05
2022-10-12T18:33:53.978Z,97.19
2022-10-12T18:36:20.904Z,97.29
2022-10-12T18:38:48.112Z,97.31
2022-10-12T18:41:17.240Z,97.16
2022-10-12T18:43:44.410Z,97.75
2022-10-12T18:46:14.552Z,98.33
2022-10-12T18:48:41.578Z,98.40
2022-10-12T18:51:15.743Z,97.87
2022-10-12T18:53:42.522Z,97.95
2022-10-12T18:56:10.760Z,97.78
2022-10-12T18:58:42.165Z,97.65
2022-10-12T19:01:20.961Z,98.77
2022-10-12T19:03:49.360Z,97.85
2022-10-12T19:06:19.453Z,98.23
2022-10-12T19:08:48.287Z,97.79
2022-10-12T19:11:17.708Z,98.36
2022-10-12T19:13:51.139Z,98.23
2022-10-12T19:16:18.186Z,99.29
2022-10-12T19:18:45.316Z,99.24
2022-10-12T19:21:14.728Z,98.97
2022-10-12T19:23:41.898Z,99.12
2022-10-12T19:26:11.611Z,98.84
2022-10-12T19:28:38.771Z,99.10
2022-10-12T19:31:16.839Z,98.99
2022-10-12T19:33:43.727Z,99.74
2022-10-12T19:36:11.915Z,99.53
2022-10-12T19:38:39.185Z,99.43
2022-10-12T19:41:06.349Z,99.26
2022-10-12T19:43:34.545Z,99.46
2022-10-12T19:46:06.659Z,99.58
2022-10-12T19:48:34.513Z,99.21
2022-10-12T19:51:03.357Z,99.96
2022-10-12T19:53:31.145Z,100.00
2022-10-12T19:56:02.021Z,99.87
2022-10-12T19:58:29.094Z,100.00
2022-10-12T20:01:03.273Z,100.00
2022-10-12T20:03:30.258Z,100.00
2022-10-12T20:05:57.097Z,100.00
2022-10-12T20:08:23.978Z,100.00
2022-10-12T20:10:50.943Z,100.00
2022-10-12T20:13:17.758Z,100.00
2022-10-12T20:15:44.558Z,100.00
2022-10-12T20:18:11.591Z,100.00
2022-10-12T20:20:44.490Z,100.00
2022-10-12T20:23:11.264Z,100.00
2022-10-12T20:25:45.726Z,100.00
2022-10-12T20:28:13.262Z,100.00
2022-10-12T20:30:41.003Z,100.00
2022-10-12T20:33:08.347Z,100.00
2022-10-12T20:35:35.914Z,100.00
2022-10-12T20:38:03.414Z,100.00
2022-10-12T20:40:30.092Z,100.00
2022-10-12T20:42:57.072Z,100.00
2022-10-12T20:45:23.933Z,100.00
2022-10-12T20:47:50.686Z,100.00
2022-10-12T20:50:17.731Z,100.00
2022-10-12T20:52:44.477Z,100.00
2022-10-12T20:55:11.623Z,100.00
2022-10-12T20:57:38.678Z,100.00
2022-10-12T21:00:06.728Z,100.00
2022-10-12T21:02:38.353Z,100.00
2022-10-12T21:05:06.407Z,100.00
2022-10-12T21:07:33.826Z,100.00
2022-10-12T21:10:00.663Z,100.00
2022-10-12T21:12:27.623Z,100.00
2022-10-12T21:14:55.122Z,100.00
2022-10-12T21:17:21.894Z,100.00
2022-10-12T21:19:50.340Z,100.00
2022-10-12T21:22:17.502Z,100.00
2022-10-12T21:24:45.053Z,100.00
2022-10-12T21:27:11.945Z,100.00
2022-10-12T21:29:38.756Z,100.00
2022-10-12T21:32:05.739Z,100.00
2022-10-12T21:34:32.475Z,100.00
2022-10-12T21:36:59.189Z,100.00
2022-10-12T21:39:26.152Z,100.00
2022-10-12T21:41:53.006Z,100.00
2022-10-12T21:44:19.880Z,100.00
2022-10-12T21:46:46.740Z,100.00
2022-10-12T21:49:13.425Z,100.00
2022-10-12T21:51:40.695Z,100.00
2022-10-12T21:54:07.686Z,100.00
2022-10-12T21:56:36.309Z,100.00
2022-10-12T21:59:04.611Z,100.00
2022-10-12T22:01:37.062Z,100.00
2022-10-12T22:04:06.727Z,100.00
2022-10-12T22:06:34.112Z,100.00
2022-10-12T22:09:06.058Z,100.00
2022-10-12T22:11:33.914Z,100.00
2022-10-12T22:14:03.074Z,100.00
2022-10-12T22:16:29.975Z,100.00
2022-10-12T22:18:58.758Z,100.00
2022-10-12T22:21:25.930Z,100.00
2022-10-12T22:23:52.897Z,100.00
2022-10-12T22:26:21.592Z,100.00
2022-10-12T22:28:48.924Z,100.00
2022-10-12T22:31:17.701Z,100.00
2022-10-12T22:33:45.795Z,100.00
2022-10-12T22:36:13.961Z,100.00
2022-10-12T22:38:40.880Z,100.00
2022-10-12T22:41:10.706Z,100.00
2022-10-12T22:43:38.000Z,100.00
2022-10-12T22:46:05.234Z,100.00
2022-10-12T22:48:32.213Z,100.00
2022-10-12T22:50:59.622Z,100.00
2022-10-12T22:53:26.735Z,100.00
2022-10-12T22:56:00.099Z,100.00
2022-10-12T22:58:27.966Z,100.00
2022-10-12T23:01:06.353Z,100.00
2022-10-12T23:03:34.011Z,100.00
2022-10-12T23:06:00.981Z,100.00
2022-10-12T23:08:28.725Z,100.00
2022-10-12T23:10:56.050Z,100.00
2022-10-12T23:13:22.797Z,100.00
2022-10-12T23:15:49.586Z,100.00
2022-10-12T23:18:16.391Z,100.00
2022-10-12T23:20:43.164Z,100.00
2022-10-12T23:23:09.837Z,100.00
2022-10-12T23:25:36.621Z,100.00
2022-10-12T23:28:03.605Z,100.00
2022-10-12T23:30:31.545Z,100.00
2022-10-12T23:32:58.326Z,100.00
2022-10-12T23:35:25.080Z,100.00
2022-10-12T23:37:52.427Z,100.00
2022-10-12T23:40:19.422Z,100.00
2022-10-12T23:42:46.191Z,100.00
2022-10-12T23:45:12.960Z,100.00
2022-10-12T23:47:39.654Z,100.00
2022-10-12T23:50:06.700Z,100.00
2022-10-12T23:52:33.451Z,100.00
2022-10-12T23:55:00.155Z,100.00
2022-10-12T23:57:46.327Z,100.00
